sensor_id;sensor_type;location;lat;lon;timestamp;P1;durP1;ratioP1;P2;durP2;ratioP2
79025;SDS011;74892;44.760;37.726;2024-03-22T00:00:26;25.02;;;15.95;;
79025;SDS011;74892;44.760;37.726;2024-03-22T00:01:30;22.23;;;13.38;;
79025;SDS011;74892;44.760;37.726;2024-03-22T00:02:32;24.00;;;13.80;;
79025;SDS011;74892;44.760;37.726;2024-03-22T00:03:34;24.08;;;13.82;;
79025;SDS011;74892;44.760;37.726;2024-03-22T00:04:36;20.67;;;11.35;;
79025;SDS011;74892;44.760;37.726;2024-03-22T00:05:38;22.73;;;14.30;;
79025;SDS011;74892;44.760;37.726;2024-03-22T00:06:42;22.63;;;13.27;;
79025;SDS011;74892;44.760;37.726;2024-03-22T00:07:45;28.23;;;13.60;;
79025;SDS011;74892;44.760;37.726;2024-03-22T00:08:47;24.63;;;13.20;;
79025;SDS011;74892;44.760;37.726;2024-03-22T00:09:49;22.50;;;12.95;;
79025;SDS011;74892;44.760;37.726;2024-03-22T00:10:51;18.75;;;9.95;;
79025;SDS011;74892;44.760;37.726;2024-03-22T00:11:53;20.52;;;10.90;;
79025;SDS011;74892;44.760;37.726;2024-03-22T00:12:54;19.73;;;12.73;;
79025;SDS011;74892;44.760;37.726;2024-03-22T00:13:56;25.92;;;13.73;;
79025;SDS011;74892;44.760;37.726;2024-03-22T00:14:58;24.80;;;14.38;;
79025;SDS011;74892;44.760;37.726;2024-03-22T00:15:59;23.92;;;14.40;;
79025;SDS011;74892;44.760;37.726;2024-03-22T00:17:01;21.58;;;13.57;;
79025;SDS011;74892;44.760;37.726;2024-03-22T00:18:03;26.20;;;13.35;;
79025;SDS011;74892;44.760;37.726;2024-03-22T00:19:05;24.48;;;13.60;;
79025;SDS011;74892;44.760;37.726;2024-03-22T00:20:07;26.52;;;14.20;;
79025;SDS011;74892;44.760;37.726;2024-03-22T00:21:08;26.55;;;15.13;;
79025;SDS011;74892;44.760;37.726;2024-03-22T00:22:10;26.13;;;15.88;;
79025;SDS011;74892;44.760;37.726;2024-03-22T00:23:12;25.73;;;16.08;;
79025;SDS011;74892;44.760;37.726;2024-03-22T00:24:14;27.23;;;15.18;;
79025;SDS011;74892;44.760;37.726;2024-03-22T00:25:15;27.50;;;13.70;;
79025;SDS011;74892;44.760;37.726;2024-03-22T00:26:17;26.00;;;14.57;;
79025;SDS011;74892;44.760;37.726;2024-03-22T00:27:19;24.48;;;14.13;;
79025;SDS011;74892;44.760;37.726;2024-03-22T00:28:20;27.13;;;14.55;;
79025;SDS011;74892;44.760;37.726;2024-03-22T00:29:22;26.45;;;14.75;;
79025;SDS011;74892;44.760;37.726;2024-03-22T00:30:24;27.70;;;13.90;;
79025;SDS011;74892;44.760;37.726;2024-03-22T00:31:25;24.83;;;14.35;;
79025;SDS011;74892;44.760;37.726;2024-03-22T00:32:27;27.08;;;14.63;;
79025;SDS011;74892;44.760;37.726;2024-03-22T00:33:29;22.92;;;13.85;;
79025;SDS011;74892;44.760;37.726;2024-03-22T00:34:30;25.23;;;13.52;;
79025;SDS011;74892;44.760;37.726;2024-03-22T00:35:32;24.52;;;14.30;;
79025;SDS011;74892;44.760;37.726;2024-03-22T00:36:33;25.60;;;14.93;;
79025;SDS011;74892;44.760;37.726;2024-03-22T00:37:35;23.05;;;13.73;;
79025;SDS011;74892;44.760;37.726;2024-03-22T00:38:37;23.25;;;13.15;;
79025;SDS011;74892;44.760;37.726;2024-03-22T00:39:38;24.98;;;13.68;;
79025;SDS011;74892;44.760;37.726;2024-03-22T00:40:40;22.65;;;12.63;;
79025;SDS011;74892;44.760;37.726;2024-03-22T00:41:42;21.20;;;11.95;;
79025;SDS011;74892;44.760;37.726;2024-03-22T00:42:43;24.77;;;13.20;;
79025;SDS011;74892;44.760;37.726;2024-03-22T00:43:45;22.30;;;13.23;;
79025;SDS011;74892;44.760;37.726;2024-03-22T00:44:47;19.50;;;11.63;;
79025;SDS011;74892;44.760;37.726;2024-03-22T00:45:48;22.52;;;13.40;;
79025;SDS011;74892;44.760;37.726;2024-03-22T00:46:50;20.40;;;11.88;;
79025;SDS011;74892;44.760;37.726;2024-03-22T00:47:52;21.30;;;10.75;;
79025;SDS011;74892;44.760;37.726;2024-03-22T00:48:54;23.05;;;12.43;;
79025;SDS011;74892;44.760;37.726;2024-03-22T00:49:55;22.45;;;12.65;;
79025;SDS011;74892;44.760;37.726;2024-03-22T00:50:57;23.73;;;12.98;;
79025;SDS011;74892;44.760;37.726;2024-03-22T00:51:59;25.00;;;12.93;;
79025;SDS011;74892;44.760;37.726;2024-03-22T00:53:01;24.17;;;12.65;;
79025;SDS011;74892;44.760;37.726;2024-03-22T00:54:04;25.25;;;13.20;;
79025;SDS011;74892;44.760;37.726;2024-03-22T00:55:05;21.10;;;12.90;;
79025;SDS011;74892;44.760;37.726;2024-03-22T00:56:07;20.63;;;12.48;;
79025;SDS011;74892;44.760;37.726;2024-03-22T00:57:09;25.85;;;13.30;;
79025;SDS011;74892;44.760;37.726;2024-03-22T00:58:11;25.13;;;12.65;;
79025;SDS011;74892;44.760;37.726;2024-03-22T00:59:12;23.63;;;12.75;;
79025;SDS011;74892;44.760;37.726;2024-03-22T01:00:14;22.33;;;12.73;;
79025;SDS011;74892;44.760;37.726;2024-03-22T01:01:17;23.55;;;12.05;;
79025;SDS011;74892;44.760;37.726;2024-03-22T01:02:19;19.05;;;10.95;;
79025;SDS011;74892;44.760;37.726;2024-03-22T01:03:20;24.23;;;12.32;;
79025;SDS011;74892;44.760;37.726;2024-03-22T01:04:22;26.48;;;11.50;;
79025;SDS011;74892;44.760;37.726;2024-03-22T01:05:24;23.67;;;12.80;;
79025;SDS011;74892;44.760;37.726;2024-03-22T01:06:27;22.20;;;12.15;;
79025;SDS011;74892;44.760;37.726;2024-03-22T01:07:28;21.00;;;12.45;;
79025;SDS011;74892;44.760;37.726;2024-03-22T01:08:30;23.35;;;12.15;;
79025;SDS011;74892;44.760;37.726;2024-03-22T01:09:32;24.48;;;12.88;;
79025;SDS011;74892;44.760;37.726;2024-03-22T01:10:34;22.33;;;12.20;;
79025;SDS011;74892;44.760;37.726;2024-03-22T01:11:35;22.48;;;12.75;;
79025;SDS011;74892;44.760;37.726;2024-03-22T01:12:37;23.27;;;13.32;;
79025;SDS011;74892;44.760;37.726;2024-03-22T01:13:39;22.95;;;12.23;;
79025;SDS011;74892;44.760;37.726;2024-03-22T01:14:41;21.35;;;12.63;;
79025;SDS011;74892;44.760;37.726;2024-03-22T01:15:43;23.67;;;12.23;;
79025;SDS011;74892;44.760;37.726;2024-03-22T01:16:46;23.13;;;12.48;;
79025;SDS011;74892;44.760;37.726;2024-03-22T01:17:48;25.80;;;12.57;;
79025;SDS011;74892;44.760;37.726;2024-03-22T01:18:50;23.42;;;11.57;;
79025;SDS011;74892;44.760;37.726;2024-03-22T01:19:52;19.83;;;11.10;;
79025;SDS011;74892;44.760;37.726;2024-03-22T01:20:53;21.70;;;10.52;;
79025;SDS011;74892;44.760;37.726;2024-03-22T01:21:55;21.63;;;10.80;;
79025;SDS011;74892;44.760;37.726;2024-03-22T01:22:58;21.08;;;11.02;;
79025;SDS011;74892;44.760;37.726;2024-03-22T01:24:01;16.80;;;10.68;;
79025;SDS011;74892;44.760;37.726;2024-03-22T01:25:04;20.50;;;10.95;;
79025;SDS011;74892;44.760;37.726;2024-03-22T01:26:06;20.00;;;11.07;;
79025;SDS011;74892;44.760;37.726;2024-03-22T01:27:07;20.50;;;10.82;;
79025;SDS011;74892;44.760;37.726;2024-03-22T01:28:09;25.35;;;12.07;;
79025;SDS011;74892;44.760;37.726;2024-03-22T01:29:11;21.45;;;11.85;;
79025;SDS011;74892;44.760;37.726;2024-03-22T01:30:12;22.50;;;12.50;;
79025;SDS011;74892;44.760;37.726;2024-03-22T01:31:14;25.92;;;13.18;;
79025;SDS011;74892;44.760;37.726;2024-03-22T01:32:17;24.52;;;13.18;;
79025;SDS011;74892;44.760;37.726;2024-03-22T01:33:18;26.38;;;14.60;;
79025;SDS011;74892;44.760;37.726;2024-03-22T01:34:20;25.48;;;14.73;;
79025;SDS011;74892;44.760;37.726;2024-03-22T01:35:21;22.85;;;13.73;;
79025;SDS011;74892;44.760;37.726;2024-03-22T01:36:23;25.88;;;14.48;;
79025;SDS011;74892;44.760;37.726;2024-03-22T01:37:25;26.27;;;14.07;;
79025;SDS011;74892;44.760;37.726;2024-03-22T01:38:26;25.23;;;14.25;;
79025;SDS011;74892;44.760;37.726;2024-03-22T01:39:28;29.27;;;14.93;;
79025;SDS011;74892;44.760;37.726;2024-03-22T01:40:31;30.55;;;16.20;;
79025;SDS011;74892;44.760;37.726;2024-03-22T01:41:32;24.90;;;14.20;;
79025;SDS011;74892;44.760;37.726;2024-03-22T01:42:34;26.33;;;14.40;;
79025;SDS011;74892;44.760;37.726;2024-03-22T01:43:36;25.40;;;15.38;;
79025;SDS011;74892;44.760;37.726;2024-03-22T01:44:37;26.40;;;13.43;;
79025;SDS011;74892;44.760;37.726;2024-03-22T01:45:39;26.23;;;14.13;;
79025;SDS011;74892;44.760;37.726;2024-03-22T01:46:42;30.48;;;15.68;;
79025;SDS011;74892;44.760;37.726;2024-03-22T01:47:45;27.83;;;16.33;;
79025;SDS011;74892;44.760;37.726;2024-03-22T01:48:46;26.00;;;14.80;;
79025;SDS011;74892;44.760;37.726;2024-03-22T01:49:49;27.70;;;14.93;;
79025;SDS011;74892;44.760;37.726;2024-03-22T01:50:53;27.00;;;15.45;;
79025;SDS011;74892;44.760;37.726;2024-03-22T01:51:55;28.30;;;15.57;;
79025;SDS011;74892;44.760;37.726;2024-03-22T01:52:57;26.10;;;14.43;;
79025;SDS011;74892;44.760;37.726;2024-03-22T01:54:00;28.13;;;16.02;;
79025;SDS011;74892;44.760;37.726;2024-03-22T01:55:04;24.17;;;14.10;;
79025;SDS011;74892;44.760;37.726;2024-03-22T01:56:07;28.30;;;15.20;;
79025;SDS011;74892;44.760;37.726;2024-03-22T01:57:09;27.00;;;14.30;;
79025;SDS011;74892;44.760;37.726;2024-03-22T01:58:11;27.70;;;14.80;;
79025;SDS011;74892;44.760;37.726;2024-03-22T01:59:13;28.00;;;15.65;;
79025;SDS011;74892;44.760;37.726;2024-03-22T02:00:16;31.02;;;16.80;;
79025;SDS011;74892;44.760;37.726;2024-03-22T02:01:17;26.52;;;14.40;;
79025;SDS011;74892;44.760;37.726;2024-03-22T02:02:19;28.10;;;16.55;;
79025;SDS011;74892;44.760;37.726;2024-03-22T02:03:21;27.17;;;16.13;;
79025;SDS011;74892;44.760;37.726;2024-03-22T02:04:23;26.40;;;16.52;;
79025;SDS011;74892;44.760;37.726;2024-03-22T02:05:24;27.02;;;16.95;;
79025;SDS011;74892;44.760;37.726;2024-03-22T02:06:26;28.35;;;15.88;;
79025;SDS011;74892;44.760;37.726;2024-03-22T02:07:29;24.95;;;15.45;;
79025;SDS011;74892;44.760;37.726;2024-03-22T02:08:31;28.52;;;14.63;;
79025;SDS011;74892;44.760;37.726;2024-03-22T02:09:32;31.13;;;16.08;;
79025;SDS011;74892;44.760;37.726;2024-03-22T02:10:34;31.45;;;16.60;;
79025;SDS011;74892;44.760;37.726;2024-03-22T02:11:36;32.00;;;15.95;;
79025;SDS011;74892;44.760;37.726;2024-03-22T02:12:41;24.02;;;12.55;;
79025;SDS011;74892;44.760;37.726;2024-03-22T02:13:42;27.90;;;16.45;;
79025;SDS011;74892;44.760;37.726;2024-03-22T02:14:44;27.27;;;15.68;;
79025;SDS011;74892;44.760;37.726;2024-03-22T02:15:46;30.30;;;15.82;;
79025;SDS011;74892;44.760;37.726;2024-03-22T02:16:47;28.13;;;15.82;;
79025;SDS011;74892;44.760;37.726;2024-03-22T02:17:49;27.92;;;14.93;;
79025;SDS011;74892;44.760;37.726;2024-03-22T02:18:50;24.55;;;14.77;;
79025;SDS011;74892;44.760;37.726;2024-03-22T02:19:52;26.52;;;15.05;;
79025;SDS011;74892;44.760;37.726;2024-03-22T02:20:55;22.75;;;13.38;;
79025;SDS011;74892;44.760;37.726;2024-03-22T02:22:00;25.58;;;14.95;;
79025;SDS011;74892;44.760;37.726;2024-03-22T02:23:01;28.13;;;14.10;;
79025;SDS011;74892;44.760;37.726;2024-03-22T02:24:03;22.50;;;14.48;;
79025;SDS011;74892;44.760;37.726;2024-03-22T02:25:05;23.13;;;14.68;;
79025;SDS011;74892;44.760;37.726;2024-03-22T02:26:08;19.88;;;12.23;;
79025;SDS011;74892;44.760;37.726;2024-03-22T02:27:10;22.70;;;13.15;;
79025;SDS011;74892;44.760;37.726;2024-03-22T02:28:12;24.42;;;12.85;;
79025;SDS011;74892;44.760;37.726;2024-03-22T02:29:13;24.40;;;12.75;;
79025;SDS011;74892;44.760;37.726;2024-03-22T02:30:16;23.80;;;13.70;;
79025;SDS011;74892;44.760;37.726;2024-03-22T02:31:18;23.58;;;14.07;;
79025;SDS011;74892;44.760;37.726;2024-03-22T02:32:21;21.38;;;13.25;;
79025;SDS011;74892;44.760;37.726;2024-03-22T02:33:22;20.60;;;13.32;;
79025;SDS011;74892;44.760;37.726;2024-03-22T02:34:24;22.02;;;12.98;;
79025;SDS011;74892;44.760;37.726;2024-03-22T02:35:26;22.85;;;13.07;;
79025;SDS011;74892;44.760;37.726;2024-03-22T02:36:27;26.83;;;13.73;;
79025;SDS011;74892;44.760;37.726;2024-03-22T02:37:29;24.50;;;13.05;;
79025;SDS011;74892;44.760;37.726;2024-03-22T02:38:33;24.40;;;14.43;;
79025;SDS011;74892;44.760;37.726;2024-03-22T02:39:38;20.80;;;12.55;;
79025;SDS011;74892;44.760;37.726;2024-03-22T02:40:40;22.33;;;14.30;;
79025;SDS011;74892;44.760;37.726;2024-03-22T02:41:41;20.30;;;13.68;;
79025;SDS011;74892;44.760;37.726;2024-03-22T02:42:43;24.75;;;13.30;;
79025;SDS011;74892;44.760;37.726;2024-03-22T02:43:45;24.10;;;13.52;;
79025;SDS011;74892;44.760;37.726;2024-03-22T02:44:46;27.80;;;14.88;;
79025;SDS011;74892;44.760;37.726;2024-03-22T02:45:48;25.15;;;13.75;;
79025;SDS011;74892;44.760;37.726;2024-03-22T02:46:50;27.48;;;15.23;;
79025;SDS011;74892;44.760;37.726;2024-03-22T02:47:52;26.65;;;13.60;;
79025;SDS011;74892;44.760;37.726;2024-03-22T02:48:54;24.00;;;13.52;;
79025;SDS011;74892;44.760;37.726;2024-03-22T02:49:55;24.10;;;13.77;;
79025;SDS011;74892;44.760;37.726;2024-03-22T02:50:57;30.13;;;15.73;;
79025;SDS011;74892;44.760;37.726;2024-03-22T02:51:59;27.95;;;15.90;;
79025;SDS011;74892;44.760;37.726;2024-03-22T02:53:01;24.08;;;14.05;;
79025;SDS011;74892;44.760;37.726;2024-03-22T02:54:04;25.25;;;14.63;;
79025;SDS011;74892;44.760;37.726;2024-03-22T02:55:06;25.35;;;12.98;;
79025;SDS011;74892;44.760;37.726;2024-03-22T02:56:08;26.77;;;15.15;;
79025;SDS011;74892;44.760;37.726;2024-03-22T02:57:10;26.92;;;13.90;;
79025;SDS011;74892;44.760;37.726;2024-03-22T02:58:12;24.42;;;13.52;;
79025;SDS011;74892;44.760;37.726;2024-03-22T02:59:13;24.17;;;13.90;;
79025;SDS011;74892;44.760;37.726;2024-03-22T03:00:16;25.65;;;15.05;;
79025;SDS011;74892;44.760;37.726;2024-03-22T03:01:17;24.98;;;14.30;;
79025;SDS011;74892;44.760;37.726;2024-03-22T03:02:19;26.88;;;14.50;;
79025;SDS011;74892;44.760;37.726;2024-03-22T03:03:21;24.83;;;14.13;;
79025;SDS011;74892;44.760;37.726;2024-03-22T03:04:22;25.27;;;13.65;;
79025;SDS011;74892;44.760;37.726;2024-03-22T03:05:24;24.10;;;14.27;;
79025;SDS011;74892;44.760;37.726;2024-03-22T03:06:26;27.48;;;14.30;;
79025;SDS011;74892;44.760;37.726;2024-03-22T03:07:27;23.73;;;14.75;;
79025;SDS011;74892;44.760;37.726;2024-03-22T03:08:29;24.63;;;14.32;;
79025;SDS011;74892;44.760;37.726;2024-03-22T03:09:31;25.20;;;14.50;;
79025;SDS011;74892;44.760;37.726;2024-03-22T03:10:32;23.08;;;13.07;;
79025;SDS011;74892;44.760;37.726;2024-03-22T03:11:34;25.35;;;14.35;;
79025;SDS011;74892;44.760;37.726;2024-03-22T03:12:36;22.38;;;13.35;;
79025;SDS011;74892;44.760;37.726;2024-03-22T03:13:37;24.88;;;15.50;;
79025;SDS011;74892;44.760;37.726;2024-03-22T03:14:39;23.80;;;13.93;;
79025;SDS011;74892;44.760;37.726;2024-03-22T03:15:44;23.23;;;14.05;;
79025;SDS011;74892;44.760;37.726;2024-03-22T03:16:45;23.73;;;13.23;;
79025;SDS011;74892;44.760;37.726;2024-03-22T03:17:47;22.30;;;13.38;;
79025;SDS011;74892;44.760;37.726;2024-03-22T03:18:49;23.40;;;13.27;;
79025;SDS011;74892;44.760;37.726;2024-03-22T03:19:51;25.95;;;14.27;;
79025;SDS011;74892;44.760;37.726;2024-03-22T03:20:55;25.05;;;13.18;;
79025;SDS011;74892;44.760;37.726;2024-03-22T03:21:57;25.77;;;13.48;;
79025;SDS011;74892;44.760;37.726;2024-03-22T03:22:59;24.27;;;12.73;;
79025;SDS011;74892;44.760;37.726;2024-03-22T03:24:03;19.70;;;11.90;;
79025;SDS011;74892;44.760;37.726;2024-03-22T03:25:05;22.60;;;12.57;;
79025;SDS011;74892;44.760;37.726;2024-03-22T03:26:08;21.92;;;12.80;;
79025;SDS011;74892;44.760;37.726;2024-03-22T03:27:09;21.42;;;11.60;;
79025;SDS011;74892;44.760;37.726;2024-03-22T03:28:11;19.10;;;11.55;;
79025;SDS011;74892;44.760;37.726;2024-03-22T03:29:15;21.65;;;10.50;;
79025;SDS011;74892;44.760;37.726;2024-03-22T03:30:16;18.45;;;10.30;;
79025;SDS011;74892;44.760;37.726;2024-03-22T03:31:18;17.90;;;10.82;;
79025;SDS011;74892;44.760;37.726;2024-03-22T03:32:20;20.20;;;11.68;;
79025;SDS011;74892;44.760;37.726;2024-03-22T03:33:25;19.48;;;10.63;;
79025;SDS011;74892;44.760;37.726;2024-03-22T03:34:26;20.17;;;11.18;;
79025;SDS011;74892;44.760;37.726;2024-03-22T03:35:28;19.60;;;12.20;;
79025;SDS011;74892;44.760;37.726;2024-03-22T03:36:30;22.67;;;12.23;;
79025;SDS011;74892;44.760;37.726;2024-03-22T03:37:32;20.67;;;11.05;;
79025;SDS011;74892;44.760;37.726;2024-03-22T03:38:34;21.52;;;12.00;;
79025;SDS011;74892;44.760;37.726;2024-03-22T03:39:38;16.70;;;11.73;;
79025;SDS011;74892;44.760;37.726;2024-03-22T03:40:41;16.92;;;10.05;;
79025;SDS011;74892;44.760;37.726;2024-03-22T03:41:42;20.48;;;11.82;;
79025;SDS011;74892;44.760;37.726;2024-03-22T03:42:44;21.95;;;11.65;;
79025;SDS011;74892;44.760;37.726;2024-03-22T03:43:46;20.10;;;12.02;;
79025;SDS011;74892;44.760;37.726;2024-03-22T03:44:50;17.65;;;10.80;;
79025;SDS011;74892;44.760;37.726;2024-03-22T03:45:55;17.02;;;9.88;;
79025;SDS011;74892;44.760;37.726;2024-03-22T03:46:56;18.60;;;10.15;;
79025;SDS011;74892;44.760;37.726;2024-03-22T03:47:58;16.95;;;10.65;;
79025;SDS011;74892;44.760;37.726;2024-03-22T03:49:00;18.42;;;11.30;;
79025;SDS011;74892;44.760;37.726;2024-03-22T03:50:01;18.00;;;9.98;;
79025;SDS011;74892;44.760;37.726;2024-03-22T03:51:03;22.98;;;10.05;;
79025;SDS011;74892;44.760;37.726;2024-03-22T03:52:06;18.02;;;10.68;;
79025;SDS011;74892;44.760;37.726;2024-03-22T03:53:07;16.88;;;9.70;;
79025;SDS011;74892;44.760;37.726;2024-03-22T03:54:09;19.42;;;10.27;;
79025;SDS011;74892;44.760;37.726;2024-03-22T03:55:11;16.88;;;9.45;;
79025;SDS011;74892;44.760;37.726;2024-03-22T03:56:13;14.68;;;9.93;;
79025;SDS011;74892;44.760;37.726;2024-03-22T03:57:14;17.30;;;9.90;;
79025;SDS011;74892;44.760;37.726;2024-03-22T03:58:16;16.55;;;9.63;;
79025;SDS011;74892;44.760;37.726;2024-03-22T03:59:19;16.25;;;9.82;;
79025;SDS011;74892;44.760;37.726;2024-03-22T04:00:20;17.38;;;9.85;;
79025;SDS011;74892;44.760;37.726;2024-03-22T04:01:22;18.23;;;9.90;;
79025;SDS011;74892;44.760;37.726;2024-03-22T04:02:25;15.27;;;9.55;;
79025;SDS011;74892;44.760;37.726;2024-03-22T04:03:26;18.15;;;9.35;;
79025;SDS011;74892;44.760;37.726;2024-03-22T04:04:28;16.05;;;9.18;;
79025;SDS011;74892;44.760;37.726;2024-03-22T04:05:30;13.93;;;8.30;;
79025;SDS011;74892;44.760;37.726;2024-03-22T04:06:31;14.55;;;8.32;;
79025;SDS011;74892;44.760;37.726;2024-03-22T04:07:33;15.23;;;9.43;;
79025;SDS011;74892;44.760;37.726;2024-03-22T04:08:35;18.58;;;9.48;;
79025;SDS011;74892;44.760;37.726;2024-03-22T04:09:36;14.63;;;8.95;;
79025;SDS011;74892;44.760;37.726;2024-03-22T04:10:38;15.68;;;8.43;;
79025;SDS011;74892;44.760;37.726;2024-03-22T04:11:40;14.75;;;9.00;;
79025;SDS011;74892;44.760;37.726;2024-03-22T04:12:42;17.48;;;8.65;;
79025;SDS011;74892;44.760;37.726;2024-03-22T04:13:43;16.17;;;9.60;;
79025;SDS011;74892;44.760;37.726;2024-03-22T04:14:45;15.93;;;9.20;;
79025;SDS011;74892;44.760;37.726;2024-03-22T04:15:47;18.08;;;9.02;;
79025;SDS011;74892;44.760;37.726;2024-03-22T04:16:48;16.35;;;9.88;;
79025;SDS011;74892;44.760;37.726;2024-03-22T04:17:50;18.52;;;9.82;;
79025;SDS011;74892;44.760;37.726;2024-03-22T04:18:52;16.50;;;9.98;;
79025;SDS011;74892;44.760;37.726;2024-03-22T04:19:54;16.33;;;9.05;;
79025;SDS011;74892;44.760;37.726;2024-03-22T04:20:58;17.35;;;9.63;;
79025;SDS011;74892;44.760;37.726;2024-03-22T04:22:00;19.08;;;10.95;;
79025;SDS011;74892;44.760;37.726;2024-03-22T04:23:02;22.00;;;11.73;;
79025;SDS011;74892;44.760;37.726;2024-03-22T04:24:04;19.85;;;11.75;;
79025;SDS011;74892;44.760;37.726;2024-03-22T04:25:06;18.35;;;10.27;;
79025;SDS011;74892;44.760;37.726;2024-03-22T04:26:09;18.85;;;11.90;;
79025;SDS011;74892;44.760;37.726;2024-03-22T04:27:11;19.48;;;11.10;;
79025;SDS011;74892;44.760;37.726;2024-03-22T04:28:18;16.63;;;10.75;;
79025;SDS011;74892;44.760;37.726;2024-03-22T04:29:28;18.65;;;10.63;;
79025;SDS011;74892;44.760;37.726;2024-03-22T04:30:30;18.65;;;11.18;;
79025;SDS011;74892;44.760;37.726;2024-03-22T04:31:31;21.08;;;11.45;;
79025;SDS011;74892;44.760;37.726;2024-03-22T04:32:33;18.38;;;10.60;;
79025;SDS011;74892;44.760;37.726;2024-03-22T04:33:35;17.75;;;11.15;;
79025;SDS011;74892;44.760;37.726;2024-03-22T04:34:41;22.23;;;13.45;;
79025;SDS011;74892;44.760;37.726;2024-03-22T04:35:46;18.75;;;11.38;;
79025;SDS011;74892;44.760;37.726;2024-03-22T04:36:48;19.02;;;11.65;;
79025;SDS011;74892;44.760;37.726;2024-03-22T04:37:49;21.15;;;11.70;;
79025;SDS011;74892;44.760;37.726;2024-03-22T04:38:51;20.80;;;12.30;;
79025;SDS011;74892;44.760;37.726;2024-03-22T04:39:53;21.10;;;11.55;;
79025;SDS011;74892;44.760;37.726;2024-03-22T04:40:55;19.48;;;11.93;;
79025;SDS011;74892;44.760;37.726;2024-03-22T04:41:59;21.08;;;12.43;;
79025;SDS011;74892;44.760;37.726;2024-03-22T04:43:01;21.75;;;12.88;;
79025;SDS011;74892;44.760;37.726;2024-03-22T04:44:02;20.92;;;11.57;;
79025;SDS011;74892;44.760;37.726;2024-03-22T04:45:04;21.10;;;12.00;;
79025;SDS011;74892;44.760;37.726;2024-03-22T04:46:06;21.52;;;13.40;;
79025;SDS011;74892;44.760;37.726;2024-03-22T04:47:08;20.35;;;11.88;;
79025;SDS011;74892;44.760;37.726;2024-03-22T04:48:11;23.52;;;12.15;;
79025;SDS011;74892;44.760;37.726;2024-03-22T04:49:17;22.08;;;12.38;;
79025;SDS011;74892;44.760;37.726;2024-03-22T04:50:19;21.45;;;11.45;;
79025;SDS011;74892;44.760;37.726;2024-03-22T04:51:21;20.35;;;12.65;;
79025;SDS011;74892;44.760;37.726;2024-03-22T04:52:23;20.90;;;11.57;;
79025;SDS011;74892;44.760;37.726;2024-03-22T04:53:24;22.45;;;12.35;;
79025;SDS011;74892;44.760;37.726;2024-03-22T04:54:26;21.45;;;12.13;;
79025;SDS011;74892;44.760;37.726;2024-03-22T04:55:28;21.20;;;11.57;;
79025;SDS011;74892;44.760;37.726;2024-03-22T04:56:29;20.83;;;13.20;;
79025;SDS011;74892;44.760;37.726;2024-03-22T04:57:34;18.23;;;11.65;;
79025;SDS011;74892;44.760;37.726;2024-03-22T04:58:35;22.38;;;13.45;;
79025;SDS011;74892;44.760;37.726;2024-03-22T04:59:37;23.83;;;14.98;;
79025;SDS011;74892;44.760;37.726;2024-03-22T05:00:39;21.23;;;12.65;;
79025;SDS011;74892;44.760;37.726;2024-03-22T05:01:41;19.40;;;11.23;;
79025;SDS011;74892;44.760;37.726;2024-03-22T05:02:45;17.48;;;10.93;;
79025;SDS011;74892;44.760;37.726;2024-03-22T05:03:47;21.33;;;11.85;;
79025;SDS011;74892;44.760;37.726;2024-03-22T05:04:49;17.65;;;10.63;;
79025;SDS011;74892;44.760;37.726;2024-03-22T05:05:51;17.75;;;11.45;;
79025;SDS011;74892;44.760;37.726;2024-03-22T05:06:52;19.70;;;10.57;;
79025;SDS011;74892;44.760;37.726;2024-03-22T05:07:54;21.45;;;11.93;;
79025;SDS011;74892;44.760;37.726;2024-03-22T05:08:56;18.60;;;11.52;;
79025;SDS011;74892;44.760;37.726;2024-03-22T05:09:57;18.08;;;10.52;;
79025;SDS011;74892;44.760;37.726;2024-03-22T05:10:59;17.73;;;10.90;;
79025;SDS011;74892;44.760;37.726;2024-03-22T05:12:01;18.38;;;10.25;;
79025;SDS011;74892;44.760;37.726;2024-03-22T05:13:02;17.98;;;9.93;;
79025;SDS011;74892;44.760;37.726;2024-03-22T05:14:04;18.10;;;10.30;;
79025;SDS011;74892;44.760;37.726;2024-03-22T05:15:06;18.20;;;10.20;;
79025;SDS011;74892;44.760;37.726;2024-03-22T05:16:08;18.30;;;10.60;;
79025;SDS011;74892;44.760;37.726;2024-03-22T05:17:10;17.67;;;10.38;;
79025;SDS011;74892;44.760;37.726;2024-03-22T05:18:14;16.38;;;9.70;;
79025;SDS011;74892;44.760;37.726;2024-03-22T05:19:16;19.38;;;10.55;;
79025;SDS011;74892;44.760;37.726;2024-03-22T05:20:18;15.98;;;10.07;;
79025;SDS011;74892;44.760;37.726;2024-03-22T05:21:20;18.60;;;10.43;;
79025;SDS011;74892;44.760;37.726;2024-03-22T05:22:22;15.25;;;9.13;;
79025;SDS011;74892;44.760;37.726;2024-03-22T05:23:23;13.57;;;8.60;;
79025;SDS011;74892;44.760;37.726;2024-03-22T05:24:25;14.27;;;9.25;;
79025;SDS011;74892;44.760;37.726;2024-03-22T05:25:30;12.80;;;7.75;;
79025;SDS011;74892;44.760;37.726;2024-03-22T05:26:32;15.23;;;8.93;;
79025;SDS011;74892;44.760;37.726;2024-03-22T05:27:37;13.88;;;7.85;;
79025;SDS011;74892;44.760;37.726;2024-03-22T05:28:39;16.73;;;9.30;;
79025;SDS011;74892;44.760;37.726;2024-03-22T05:29:41;15.52;;;8.65;;
79025;SDS011;74892;44.760;37.726;2024-03-22T05:30:42;16.75;;;9.93;;
79025;SDS011;74892;44.760;37.726;2024-03-22T05:31:48;12.48;;;8.35;;
79025;SDS011;74892;44.760;37.726;2024-03-22T05:32:52;17.40;;;8.48;;
79025;SDS011;74892;44.760;37.726;2024-03-22T05:33:53;15.75;;;9.23;;
79025;SDS011;74892;44.760;37.726;2024-03-22T05:34:55;11.65;;;7.68;;
79025;SDS011;74892;44.760;37.726;2024-03-22T05:35:57;14.93;;;8.48;;
79025;SDS011;74892;44.760;37.726;2024-03-22T05:37:00;15.20;;;8.77;;
79025;SDS011;74892;44.760;37.726;2024-03-22T05:38:02;13.77;;;9.43;;
79025;SDS011;74892;44.760;37.726;2024-03-22T05:39:04;13.20;;;8.15;;
79025;SDS011;74892;44.760;37.726;2024-03-22T05:40:06;12.82;;;7.97;;
79025;SDS011;74892;44.760;37.726;2024-03-22T05:41:08;13.80;;;8.30;;
79025;SDS011;74892;44.760;37.726;2024-03-22T05:42:10;14.48;;;8.55;;
79025;SDS011;74892;44.760;37.726;2024-03-22T05:43:12;13.25;;;7.93;;
79025;SDS011;74892;44.760;37.726;2024-03-22T05:44:14;14.20;;;8.77;;
79025;SDS011;74892;44.760;37.726;2024-03-22T05:45:16;14.95;;;8.35;;
79025;SDS011;74892;44.760;37.726;2024-03-22T05:46:18;15.48;;;8.82;;
79025;SDS011;74892;44.760;37.726;2024-03-22T05:47:20;13.10;;;7.97;;
79025;SDS011;74892;44.760;37.726;2024-03-22T05:48:22;13.95;;;9.13;;
79025;SDS011;74892;44.760;37.726;2024-03-22T05:49:24;13.93;;;8.52;;
79025;SDS011;74892;44.760;37.726;2024-03-22T05:50:29;13.77;;;8.05;;
79025;SDS011;74892;44.760;37.726;2024-03-22T05:51:30;16.80;;;9.45;;
79025;SDS011;74892;44.760;37.726;2024-03-22T05:52:32;11.50;;;7.43;;
79025;SDS011;74892;44.760;37.726;2024-03-22T05:53:34;13.07;;;7.82;;
79025;SDS011;74892;44.760;37.726;2024-03-22T05:54:36;14.32;;;7.40;;
79025;SDS011;74892;44.760;37.726;2024-03-22T05:55:38;12.52;;;8.85;;
79025;SDS011;74892;44.760;37.726;2024-03-22T05:56:40;15.15;;;9.18;;
79025;SDS011;74892;44.760;37.726;2024-03-22T05:57:41;17.00;;;10.05;;
79025;SDS011;74892;44.760;37.726;2024-03-22T05:58:43;12.30;;;8.20;;